Time;durP1;ratioP1;P1;durP2;ratioP2;P2;SDS_P1;SDS_P2;PMS_P1;PMS_P2;Temp;Humidity;BMP_temperature;BMP_pressure;BME280_temperature;BME280_humidity;BME280_pressure;Samples;Min_cycle;Max_cycle;Signal;HPM_P1;HPM_P2
2021/01/10 00:02:06;0.00;0.00;0.62;0.00;0.00;0.62;2.33;1.93;;;19.10;28.10;;;;;;2265934;61;20365;-61
2021/01/10 00:04:52;0.00;0.00;0.62;0.00;0.00;0.62;2.77;2.47;;;19.10;28.10;;;;;;2266066;61;20349;-63
2021/01/10 00:07:37;0.00;0.00;0.62;0.00;0.00;0.62;2.30;2.00;;;19.10;28.10;;;;;;2265643;61;20401;-62
2021/01/10 00:10:23;0.00;0.00;0.62;0.00;0.00;0.62;2.90;2.60;;;19.10;28.10;;;;;;2264276;61;20373;-62
2021/01/10 00:13:07;0.00;0.00;0.62;0.00;0.00;0.62;3.20;2.60;;;19.10;28.10;;;;;;2265420;61;20721;-65
2021/01/10 00:15:52;0.00;0.00;0.62;0.00;0.00;0.62;2.30;2.10;;;19.10;28.20;;;;;;2266065;61;20397;-62
2021/01/10 00:18:37;0.00;0.00;0.62;0.00;0.00;0.62;2.70;2.50;;;19.10;28.20;;;;;;2265083;61;20461;-64
2021/01/10 00:21:22;0.00;0.00;0.62;0.00;0.00;0.62;3.27;2.43;;;19.10;28.20;;;;;;2265740;61;20448;-63
2021/01/10 00:24:07;0.00;0.00;0.62;0.00;0.00;0.62;2.50;2.30;;;19.10;28.20;;;;;;2265987;61;20365;-63
2021/01/10 00:26:51;0.00;0.00;0.62;0.00;0.00;0.62;2.83;2.30;;;19.10;28.20;;;;;;2262339;61;20392;-63
2021/01/10 00:29:38;0.00;0.00;0.62;0.00;0.00;0.62;2.30;2.10;;;19.10;28.20;;;;;;2265478;61;20382;-61
2021/01/10 00:32:23;0.00;0.00;0.62;0.00;0.00;0.62;2.17;1.97;;;19.10;28.20;;;;;;2265559;61;20349;-63
2021/01/10 00:35:10;0.00;0.00;0.62;0.00;0.00;0.62;2.43;1.90;;;19.10;28.20;;;;;;2265920;61;20637;-64
2021/01/10 00:37:57;0.00;0.00;0.62;0.00;0.00;0.62;2.20;1.90;;;19.10;28.20;;;;;;2265873;61;20740;-64
2021/01/10 00:40:41;0.00;0.00;0.62;0.00;0.00;0.62;2.33;2.13;;;19.10;28.70;;;;;;2265190;61;20400;-62
2021/01/10 00:43:26;0.00;0.00;0.62;0.00;0.00;0.62;2.67;2.47;;;19.10;28.20;;;;;;2265728;61;20395;-64
2021/01/10 00:46:14;0.00;0.00;0.62;0.00;0.00;0.62;2.47;2.27;;;19.10;28.20;;;;;;2265865;61;20358;-63
2021/01/10 00:48:59;0.00;0.00;0.62;0.00;0.00;0.62;2.37;2.10;;;19.10;28.20;;;;;;2264963;61;20672;-64
2021/01/10 00:51:44;0.00;0.00;0.62;0.00;0.00;0.62;3.13;2.53;;;19.10;28.20;;;;;;2262342;61;20389;-64
2021/01/10 00:54:30;0.00;0.00;0.62;0.00;0.00;0.62;2.63;2.43;;;19.10;28.20;;;;;;2265236;61;20379;-64
2021/01/10 00:57:16;0.00;0.00;0.62;0.00;0.00;0.62;2.50;2.30;;;19.10;28.20;;;;;;2265400;61;20373;-64
2021/01/10 01:00:06;0.00;0.00;0.62;0.00;0.00;0.62;2.77;2.50;;;19.10;28.40;;;;;;2265112;61;20373;-63
2021/01/10 01:02:55;0.00;0.00;0.62;0.00;0.00;0.62;2.63;2.43;;;19.10;28.20;;;;;;2264838;61;20365;-64
2021/01/10 01:05:42;0.00;0.00;0.62;0.00;0.00;0.62;2.67;2.37;;;19.10;28.20;;;;;;2265612;61;20430;-64
2021/01/10 01:08:28;0.00;0.00;0.62;0.00;0.00;0.62;3.20;2.63;;;19.10;28.20;;;;;;2265281;61;20425;-62
2021/01/10 01:11:14;0.00;0.00;0.62;0.00;0.00;0.62;2.77;2.43;;;19.10;28.20;;;;;;2264895;61;20377;-64
2021/01/10 01:13:59;0.00;0.00;0.62;0.00;0.00;0.62;2.77;2.40;;;19.10;28.20;;;;;;2264965;61;20799;-64
2021/01/10 01:16:43;0.00;0.00;0.62;0.00;0.00;0.62;3.40;2.30;;;19.10;28.20;;;;;;2265599;61;20381;-61
2021/01/10 01:19:28;0.00;0.00;0.62;0.00;0.00;0.62;2.30;2.10;;;19.10;28.20;;;;;;2265635;61;20392;-64
2021/01/10 01:22:13;0.00;0.00;0.62;0.00;0.00;0.62;2.60;2.40;;;19.10;28.20;;;;;;2265658;61;20465;-64
2021/01/10 01:24:58;0.00;0.00;0.62;0.00;0.00;0.62;2.90;2.63;;;19.10;28.20;;;;;;2265445;61;20357;-64
2021/01/10 01:27:44;0.00;0.00;0.62;0.00;0.00;0.62;2.50;1.77;;;19.10;28.20;;;;;;2265613;61;20443;-65
2021/01/10 01:30:28;0.00;0.00;0.62;0.00;0.00;0.62;2.53;2.23;;;19.10;28.20;;;;;;2265528;61;20664;-62
2021/01/10 01:33:13;0.00;0.00;0.62;0.00;0.00;0.62;2.20;2.00;;;19.10;28.20;;;;;;2265276;61;20389;-62
2021/01/10 01:35:57;0.00;0.00;0.62;0.00;0.00;0.62;2.80;2.60;;;19.10;28.80;;;;;;2265389;61;20709;-63
2021/01/10 01:38:44;0.00;0.00;0.62;0.00;0.00;0.62;2.97;2.20;;;19.10;28.20;;;;;;2265519;61;20488;-64
2021/01/10 01:41:36;0.00;0.00;0.62;0.00;0.00;0.62;2.63;2.43;;;19.10;28.30;;;;;;2265545;61;20377;-64
2021/01/10 01:44:21;0.00;0.00;0.62;0.00;0.00;0.62;2.60;2.20;;;19.10;28.30;;;;;;2265792;61;20380;-65
2021/01/10 01:47:07;0.00;0.00;0.62;0.00;0.00;0.62;2.50;1.80;;;19.10;28.30;;;;;;2264871;61;20436;-63
2021/01/10 01:49:51;0.00;0.00;0.62;0.00;0.00;0.62;3.20;2.00;;;19.10;28.30;;;;;;2264621;61;20454;-62
2021/01/10 01:52:36;0.00;0.00;0.62;0.00;0.00;0.62;2.50;2.30;;;19.10;28.20;;;;;;2265286;61;20366;-62
2021/01/10 01:55:20;0.00;0.00;0.62;0.00;0.00;0.62;2.20;2.00;;;19.10;28.30;;;;;;2264784;61;20424;-63
2021/01/10 01:58:05;0.00;0.00;0.62;0.00;0.00;0.62;2.10;1.53;;;19.10;28.20;;;;;;2264708;61;20415;-64
2021/01/10 02:00:51;0.00;0.00;0.62;0.00;0.00;0.62;2.60;2.00;;;19.10;28.20;;;;;;2264970;61;20373;-64
2021/01/10 02:03:41;0.00;0.00;0.62;0.00;0.00;0.62;3.00;2.30;;;19.10;28.30;;;;;;2265032;61;20376;-64
2021/01/10 02:06:33;0.00;0.00;0.62;0.00;0.00;0.62;2.27;1.80;;;19.10;28.30;;;;;;2265189;61;20353;-62
2021/01/10 02:09:19;0.00;0.00;0.62;0.00;0.00;0.62;2.10;1.90;;;19.10;28.30;;;;;;2264717;61;20565;-62
2021/01/10 02:12:07;0.00;0.00;0.62;0.00;0.00;0.62;2.30;2.10;;;19.10;28.30;;;;;;2264750;61;20389;-65
2021/01/10 02:14:58;0.00;0.00;0.62;0.00;0.00;0.62;2.63;2.23;;;19.10;28.30;;;;;;2265585;61;20401;-64
2021/01/10 02:17:50;0.00;0.00;0.62;0.00;0.00;0.62;2.20;2.00;;;19.10;28.30;;;;;;2265387;61;20381;-64
2021/01/10 02:20:38;0.00;0.00;0.62;0.00;0.00;0.62;2.40;2.10;;;19.10;28.30;;;;;;2265255;61;20525;-62
2021/01/10 02:23:28;0.00;0.00;0.62;0.00;0.00;0.62;2.57;2.20;;;19.10;28.80;;;;;;2265468;61;20619;-65
2021/01/10 02:26:13;0.00;0.00;0.62;0.00;0.00;0.62;1.93;1.70;;;19.10;28.40;;;;;;2265623;61;20412;-66
2021/01/10 02:28:58;0.00;0.00;0.62;0.00;0.00;0.62;2.17;1.97;;;19.10;28.40;;;;;;2265682;61;20360;-64
2021/01/10 02:31:47;0.00;0.00;0.62;0.00;0.00;0.62;2.40;1.90;;;19.10;28.40;;;;;;2265527;61;20385;-65
2021/01/10 02:34:34;0.00;0.00;0.62;0.00;0.00;0.62;2.20;1.90;;;19.10;28.40;;;;;;2265714;61;20785;-65
2021/01/10 02:37:57;0.00;0.00;0.62;0.00;0.00;0.62;2.10;1.83;;;19.10;28.40;;;;;;2265773;61;20431;-63
2021/01/10 02:40:53;0.00;0.00;0.62;0.00;0.00;0.62;2.70;1.93;;;19.20;28.50;;;;;;2256889;61;20461;-68
2021/01/10 02:43:43;0.00;0.00;0.62;0.00;0.00;0.62;3.33;3.03;;;19.10;28.40;;;;;;2265807;61;20376;-65
2021/01/10 02:46:28;0.00;0.00;0.62;0.00;0.00;0.62;4.80;4.40;;;19.10;28.30;;;;;;2265335;61;20432;-64
2021/01/10 02:49:13;0.00;0.00;0.62;0.00;0.00;0.62;6.10;5.50;;;19.10;28.20;;;;;;2265299;61;20433;-67
2021/01/10 02:51:57;0.00;0.00;0.62;0.00;0.00;0.62;6.90;5.33;;;19.10;27.90;;;;;;2265569;61;20385;-64
2021/01/10 02:54:42;0.00;0.00;0.62;0.00;0.00;0.62;5.63;4.97;;;19.00;27.70;;;;;;2265294;61;20543;-65
2021/01/10 02:57:32;0.00;0.00;0.62;0.00;0.00;0.62;6.23;5.40;;;19.00;27.60;;;;;;2265347;61;20461;-66
2021/01/10 03:00:21;0.00;0.00;0.62;0.00;0.00;0.62;6.90;5.60;;;19.00;28.00;;;;;;2265276;61;20412;-64
2021/01/10 03:03:06;0.00;0.00;0.62;0.00;0.00;0.62;5.40;4.90;;;18.90;27.40;;;;;;2265906;61;20357;-65
2021/01/10 03:05:51;0.00;0.00;0.62;0.00;0.00;0.62;7.17;5.77;;;18.90;27.40;;;;;;2265662;61;20376;-66
2021/01/10 03:08:37;0.00;0.00;0.62;0.00;0.00;0.62;6.83;5.80;;;18.80;27.30;;;;;;2265195;61;20408;-63
2021/01/10 03:11:23;0.00;0.00;0.62;0.00;0.00;0.62;6.30;5.70;;;18.80;27.40;;;;;;2265040;61;20385;-65
2021/01/10 03:14:08;0.00;0.00;0.62;0.00;0.00;0.62;5.60;5.00;;;18.80;27.40;;;;;;2263798;61;20405;-65
2021/01/10 03:16:54;0.00;0.00;0.62;0.00;0.00;0.62;6.50;5.90;;;18.70;27.40;;;;;;2261303;61;20746;-63
2021/01/10 03:19:39;0.00;0.00;0.62;0.00;0.00;0.62;6.40;5.33;;;18.70;27.40;;;;;;2260957;61;20582;-65
2021/01/10 03:22:24;0.00;0.00;0.62;0.00;0.00;0.62;5.57;4.93;;;18.60;27.30;;;;;;2261665;61;20394;-67
2021/01/10 03:25:10;0.00;0.00;0.62;0.00;0.00;0.62;6.30;5.73;;;18.60;27.30;;;;;;2261495;61;21048;-67
2021/01/10 03:27:54;0.00;0.00;0.62;0.00;0.00;0.62;6.20;5.60;;;18.60;27.30;;;;;;2261585;61;20362;-63
2021/01/10 03:30:39;0.00;0.00;0.62;0.00;0.00;0.62;5.87;5.27;;;18.50;27.20;;;;;;2261107;61;20601;-66
2021/01/10 03:33:25;0.00;0.00;0.62;0.00;0.00;0.62;6.87;6.20;;;18.60;27.30;;;;;;2261322;61;20363;-67
2021/01/10 03:36:09;0.00;0.00;0.62;0.00;0.00;0.62;7.47;6.17;;;18.50;27.20;;;;;;2261539;61;20722;-63
2021/01/10 03:38:54;0.00;0.00;0.62;0.00;0.00;0.62;6.60;5.63;;;18.50;27.70;;;;;;2261091;61;20435;-65
2021/01/10 03:41:38;0.00;0.00;0.62;0.00;0.00;0.62;5.97;5.43;;;18.50;27.20;;;;;;2261111;61;20377;-67
2021/01/10 03:44:24;0.00;0.00;0.62;0.00;0.00;0.62;6.87;6.10;;;18.40;27.10;;;;;;2261547;61;20584;-62
2021/01/10 03:47:09;0.00;0.00;0.62;0.00;0.00;0.62;6.80;5.90;;;18.40;27.10;;;;;;2261604;61;20568;-63
2021/01/10 03:49:54;0.00;0.00;0.62;0.00;0.00;0.62;7.03;6.00;;;18.40;27.10;;;;;;2261025;61;20381;-68
2021/01/10 03:52:39;0.00;0.00;0.62;0.00;0.00;0.62;6.23;5.63;;;18.40;27.10;;;;;;2261268;61;20382;-63
2021/01/10 03:55:24;0.00;0.00;0.62;0.00;0.00;0.62;5.90;5.30;;;18.30;27.00;;;;;;2261394;61;20806;-62
2021/01/10 03:58:08;0.00;0.00;0.62;0.00;0.00;0.62;6.30;5.70;;;18.30;27.00;;;;;;2261807;61;20375;-61
2021/01/10 04:00:53;0.00;0.00;0.62;0.00;0.00;0.62;7.17;6.47;;;18.30;27.00;;;;;;2261375;61;20402;-65
2021/01/10 04:03:37;0.00;0.00;0.62;0.00;0.00;0.62;6.17;5.57;;;18.30;27.00;;;;;;2261248;61;20610;-66
2021/01/10 04:06:23;0.00;0.00;0.62;0.00;0.00;0.62;6.67;6.07;;;18.20;27.00;;;;;;2261820;61;20569;-65
2021/01/10 04:09:07;0.00;0.00;0.62;0.00;0.00;0.62;6.77;6.17;;;18.20;27.00;;;;;;2261132;61;20358;-63
2021/01/10 04:11:52;0.00;0.00;0.62;0.00;0.00;0.62;9.30;5.70;;;18.20;27.00;;;;;;2261393;61;20417;-66
2021/01/10 04:14:37;0.00;0.00;0.62;0.00;0.00;0.62;7.30;6.40;;;18.20;27.00;;;;;;2261296;61;20525;-65
2021/01/10 04:17:21;0.00;0.00;0.62;0.00;0.00;0.62;8.60;7.20;;;18.20;27.00;;;;;;2261242;61;20386;-63
2021/01/10 04:20:07;0.00;0.00;0.62;0.00;0.00;0.62;7.27;6.47;;;18.20;27.00;;;;;;2261390;61;20604;-63
2021/01/10 04:22:52;0.00;0.00;0.62;0.00;0.00;0.62;7.10;6.30;;;18.10;26.90;;;;;;2261443;61;20470;-66
2021/01/10 04:25:37;0.00;0.00;0.62;0.00;0.00;0.62;7.87;6.87;;;18.10;26.90;;;;;;2261181;61;20366;-67
2021/01/10 04:28:22;0.00;0.00;0.62;0.00;0.00;0.62;7.30;6.60;;;18.10;26.90;;;;;;2261691;61;20389;-63
2021/01/10 04:31:06;0.00;0.00;0.62;0.00;0.00;0.62;7.07;6.37;;;18.10;26.90;;;;;;2261241;61;20448;-66
2021/01/10 04:33:51;0.00;0.00;0.62;0.00;0.00;0.62;6.40;5.80;;;18.00;26.80;;;;;;2261255;61;20365;-62
2021/01/10 04:36:36;0.00;0.00;0.62;0.00;0.00;0.62;6.50;5.90;;;18.00;26.80;;;;;;2261069;61;20378;-65
2021/01/10 04:39:21;0.00;0.00;0.62;0.00;0.00;0.62;7.57;6.00;;;18.00;26.80;;;;;;2261373;61;20574;-63
2021/01/10 04:42:06;0.00;0.00;0.62;0.00;0.00;0.62;7.13;6.43;;;18.00;26.80;;;;;;2261730;61;20359;-65
2021/01/10 04:44:52;0.00;0.00;0.62;0.00;0.00;0.62;6.90;6.20;;;17.90;26.70;;;;;;2261173;61;20359;-64
2021/01/10 04:47:36;0.00;0.00;0.62;0.00;0.00;0.62;7.20;6.10;;;17.90;26.80;;;;;;2261210;61;20729;-63
2021/01/10 04:50:23;0.00;0.00;0.62;0.00;0.00;0.62;6.80;5.67;;;17.90;26.70;;;;;;2261308;61;20382;-65
2021/01/10 04:53:10;0.00;0.00;0.62;0.00;0.00;0.62;8.00;6.27;;;17.90;26.70;;;;;;2261193;61;20581;-63
2021/01/10 04:55:58;0.00;0.00;0.62;0.00;0.00;0.62;7.10;6.13;;;17.90;26.70;;;;;;2261194;61;20453;-66
2021/01/10 04:58:49;0.00;0.00;0.62;0.00;0.00;0.62;7.70;6.20;;;17.90;26.70;;;;;;2261009;61;20719;-65
2021/01/10 05:01:41;0.00;0.00;0.62;0.00;0.00;0.62;6.90;6.00;;;17.90;26.70;;;;;;2261276;61;20381;-64
2021/01/10 05:04:29;0.00;0.00;0.62;0.00;0.00;0.62;7.60;6.63;;;17.80;26.70;;;;;;2261495;61;20398;-64
2021/01/10 05:07:14;0.00;0.00;0.62;0.00;0.00;0.62;7.80;6.20;;;17.80;26.60;;;;;;2261104;61;20358;-63
2021/01/10 05:09:59;0.00;0.00;0.62;0.00;0.00;0.62;7.23;6.17;;;17.80;26.60;;;;;;2261011;61;20656;-64
2021/01/10 05:12:45;0.00;0.00;0.62;0.00;0.00;0.62;7.33;5.73;;;17.80;26.60;;;;;;2261498;61;20354;-66
2021/01/10 05:15:30;0.00;0.00;0.62;0.00;0.00;0.62;7.07;6.37;;;17.70;26.50;;;;;;2261117;61;20386;-65
2021/01/10 05:18:15;0.00;0.00;0.62;0.00;0.00;0.62;6.73;6.00;;;17.70;26.50;;;;;;2261133;61;20423;-66
2021/01/10 05:21:02;0.00;0.00;0.62;0.00;0.00;0.62;6.73;6.03;;;17.70;26.50;;;;;;2260925;61;20385;-64
2021/01/10 05:23:51;0.00;0.00;0.62;0.00;0.00;0.62;7.20;6.50;;;17.70;26.50;;;;;;2261377;61;20363;-64
2021/01/10 05:26:36;0.00;0.00;0.62;0.00;0.00;0.62;7.43;6.70;;;17.70;26.50;;;;;;2261401;61;20390;-65
2021/01/10 05:29:22;0.00;0.00;0.62;0.00;0.00;0.62;7.93;6.30;;;17.70;26.50;;;;;;2260987;61;20378;-63
2021/01/10 05:32:08;0.00;0.00;0.62;0.00;0.00;0.62;8.37;6.87;;;17.60;26.40;;;;;;2261009;61;20717;-65
2021/01/10 05:35:00;0.00;0.00;0.62;0.00;0.00;0.62;8.10;6.30;;;17.60;26.40;;;;;;2261299;61;20397;-63
2021/01/10 05:37:55;0.00;0.00;0.62;0.00;0.00;0.62;7.00;6.30;;;17.60;26.40;;;;;;2261105;61;20378;-64
2021/01/10 05:40:39;0.00;0.00;0.62;0.00;0.00;0.62;6.70;6.00;;;17.60;26.40;;;;;;2260886;61;20390;-62
2021/01/10 05:43:25;0.00;0.00;0.62;0.00;0.00;0.62;8.00;6.50;;;17.60;26.40;;;;;;2261057;61;20357;-66
2021/01/10 05:46:16;0.00;0.00;0.62;0.00;0.00;0.62;7.47;6.77;;;17.50;26.40;;;;;;2261390;61;20363;-62
2021/01/10 05:49:01;0.00;0.00;0.62;0.00;0.00;0.62;6.80;5.90;;;17.60;26.40;;;;;;2261891;61;20394;-62
2021/01/10 05:51:47;0.00;0.00;0.62;0.00;0.00;0.62;7.87;6.37;;;17.50;26.40;;;;;;2261896;61;20378;-63
2021/01/10 05:54:37;0.00;0.00;0.62;0.00;0.00;0.62;8.10;6.17;;;17.50;26.40;;;;;;2261966;61;20402;-64
2021/01/10 05:57:26;0.00;0.00;0.62;0.00;0.00;0.62;7.63;6.40;;;17.50;26.40;;;;;;2262103;61;20370;-63
2021/01/10 06:00:13;0.00;0.00;0.62;0.00;0.00;0.62;7.87;6.57;;;17.40;26.30;;;;;;2261789;61;20377;-64
2021/01/10 06:03:00;0.00;0.00;0.62;0.00;0.00;0.62;5.80;5.20;;;17.40;26.30;;;;;;2261853;61;20440;-64
2021/01/10 06:05:59;0.00;0.00;0.62;0.00;0.00;0.62;8.30;6.50;;;17.50;26.40;;;;;;2261898;61;20362;-61
2021/01/10 06:08:45;0.00;0.00;0.62;0.00;0.00;0.62;7.70;6.23;;;17.40;26.30;;;;;;2261803;61;20361;-63
2021/01/10 06:11:30;0.00;0.00;0.62;0.00;0.00;0.62;6.40;5.30;;;17.40;26.40;;;;;;2262053;61;20410;-64
2021/01/10 06:14:20;0.00;0.00;0.62;0.00;0.00;0.62;6.43;5.70;;;17.40;26.40;;;;;;2261895;61;20385;-65
2021/01/10 06:17:07;0.00;0.00;0.62;0.00;0.00;0.62;6.93;6.20;;;17.40;26.40;;;;;;2261313;61;20345;-65
2021/01/10 06:19:54;0.00;0.00;0.62;0.00;0.00;0.62;7.13;5.97;;;17.40;26.40;;;;;;2261810;61;20424;-65
2021/01/10 06:22:41;0.00;0.00;0.62;0.00;0.00;0.62;7.67;6.60;;;17.40;26.40;;;;;;2262166;61;20599;-64
2021/01/10 06:25:28;0.00;0.00;0.62;0.00;0.00;0.62;7.03;6.20;;;17.40;26.40;;;;;;2261941;61;20765;-63
2021/01/10 06:28:16;0.00;0.00;0.62;0.00;0.00;0.62;7.00;6.00;;;17.30;26.30;;;;;;2261862;61;20386;-63
2021/01/10 06:31:03;0.00;0.00;0.62;0.00;0.00;0.62;7.27;6.27;;;17.30;26.30;;;;;;2261622;61;20386;-66
2021/01/10 06:33:54;0.00;0.00;0.62;0.00;0.00;0.62;8.13;7.30;;;17.30;26.30;;;;;;2262049;61;20437;-64
2021/01/10 06:36:42;0.00;0.00;0.62;0.00;0.00;0.62;8.93;7.90;;;17.30;26.30;;;;;;2261761;61;20371;-62
2021/01/10 06:39:32;0.00;0.00;0.62;0.00;0.00;0.62;8.40;7.27;;;17.30;26.30;;;;;;2261516;61;20482;-65
2021/01/10 06:42:17;0.00;0.00;0.62;0.00;0.00;0.62;7.23;6.50;;;17.30;26.30;;;;;;2261987;61;20398;-62
2021/01/10 06:45:05;0.00;0.00;0.62;0.00;0.00;0.62;6.80;6.10;;;17.20;26.20;;;;;;2261998;61;20431;-63
2021/01/10 06:47:54;0.00;0.00;0.62;0.00;0.00;0.62;8.40;7.60;;;17.20;26.20;;;;;;2261582;61;20362;-63
2021/01/10 06:50:45;0.00;0.00;0.62;0.00;0.00;0.62;7.37;6.43;;;17.20;26.20;;;;;;2261677;61;20378;-63
2021/01/10 06:53:31;0.00;0.00;0.62;0.00;0.00;0.62;7.53;6.80;;;17.20;26.20;;;;;;2261668;61;20413;-63
2021/01/10 06:56:16;0.00;0.00;0.62;0.00;0.00;0.62;7.60;6.43;;;17.20;26.20;;;;;;2262044;61;20385;-67
2021/01/10 06:59:02;0.00;0.00;0.62;0.00;0.00;0.62;9.63;6.70;;;17.20;26.20;;;;;;2261529;61;20396;-62
2021/01/10 07:02:00;0.00;0.00;0.62;0.00;0.00;0.62;7.90;7.10;;;17.20;26.20;;;;;;2261474;61;20385;-64
2021/01/10 07:05:02;0.00;0.00;0.62;0.00;0.00;0.62;7.30;6.40;;;17.20;26.20;;;;;;2261823;61;20723;-65
2021/01/10 07:07:47;0.00;0.00;0.62;0.00;0.00;0.62;8.63;7.43;;;17.20;26.20;;;;;;2261652;61;20449;-63
2021/01/10 07:10:33;0.00;0.00;0.62;0.00;0.00;0.62;8.00;7.20;;;17.20;26.80;;;;;;2261895;61;20398;-66
2021/01/10 07:13:24;0.00;0.00;0.62;0.00;0.00;0.62;9.37;7.17;;;17.20;26.30;;;;;;2261713;61;20373;-63
2021/01/10 07:16:19;0.00;0.00;0.62;0.00;0.00;0.62;8.30;6.77;;;17.20;26.30;;;;;;2264759;61;20397;-67
2021/01/10 07:19:08;0.00;0.00;0.62;0.00;0.00;0.62;8.40;7.43;;;17.10;26.20;;;;;;2265789;61;20464;-63
2021/01/10 07:21:55;0.00;0.00;0.62;0.00;0.00;0.62;7.50;6.57;;;17.10;26.20;;;;;;2265898;61;20389;-65
2021/01/10 07:24:39;0.00;0.00;0.62;0.00;0.00;0.62;8.27;7.17;;;17.10;26.20;;;;;;2265870;61;20400;-64
2021/01/10 07:27:31;0.00;0.00;0.62;0.00;0.00;0.62;8.30;7.50;;;17.10;26.20;;;;;;2265663;61;20372;-66
2021/01/10 07:30:24;0.00;0.00;0.62;0.00;0.00;0.62;7.57;6.60;;;17.10;26.20;;;;;;2265482;61;20444;-67
2021/01/10 07:33:23;0.00;0.00;0.62;0.00;0.00;0.62;7.50;6.60;;;17.10;26.20;;;;;;2265974;61;20384;-68
2021/01/10 07:36:09;0.00;0.00;0.62;0.00;0.00;0.62;8.73;7.50;;;17.10;26.80;;;;;;2265816;61;20428;-64
2021/01/10 07:38:54;0.00;0.00;0.62;0.00;0.00;0.62;10.63;7.47;;;17.00;26.20;;;;;;2265129;61;20357;-63
2021/01/10 07:41:38;0.00;0.00;0.62;0.00;0.00;0.62;8.27;7.00;;;17.00;26.20;;;;;;2265625;61;20386;-66
2021/01/10 07:44:45;0.00;0.00;0.62;0.00;0.00;0.62;8.43;7.63;;;17.00;26.10;;;;;;2265818;61;20377;-63
2021/01/10 07:47:45;0.00;0.00;0.62;0.00;0.00;0.62;7.87;7.07;;;17.00;26.20;;;;;;2265628;61;20373;-66
2021/01/10 07:50:30;0.00;0.00;0.62;0.00;0.00;0.62;9.07;7.40;;;17.00;26.10;;;;;;2265123;61;20381;-66
2021/01/10 07:53:15;0.00;0.00;0.62;0.00;0.00;0.62;9.37;7.63;;;17.00;26.10;;;;;;2265343;61;20460;-64
2021/01/10 07:56:15;0.00;0.00;0.62;0.00;0.00;0.62;8.20;7.07;;;17.00;26.10;;;;;;2265492;61;20390;-67
2021/01/10 07:59:15;0.00;0.00;0.62;0.00;0.00;0.62;9.50;8.07;;;17.00;26.10;;;;;;2265267;61;20400;-65
2021/01/10 08:02:01;0.00;0.00;0.62;0.00;0.00;0.62;9.13;8.10;;;17.00;26.10;;;;;;2265464;61;20358;-64
2021/01/10 08:04:46;0.00;0.00;0.62;0.00;0.00;0.62;10.40;8.57;;;17.00;26.10;;;;;;2265339;61;20466;-66
2021/01/10 08:07:37;0.00;0.00;0.62;0.00;0.00;0.62;8.95;7.70;;;17.00;26.10;;;;;;2264812;61;20381;-64
2021/01/10 08:10:24;0.00;0.00;0.62;0.00;0.00;0.62;10.73;7.80;;;16.90;26.60;;;;;;2265290;61;20265;-65
2021/01/10 08:13:30;0.00;0.00;0.62;0.00;0.00;0.62;11.20;8.70;;;17.00;26.10;;;;;;2265411;61;20365;-66
2021/01/10 08:16:30;0.00;0.00;0.62;0.00;0.00;0.62;9.80;7.90;;;17.00;26.10;;;;;;2265299;61;20768;-64
2021/01/10 08:19:16;0.00;0.00;0.62;0.00;0.00;0.62;8.50;7.60;;;17.00;26.10;;;;;;2265000;61;20361;-65
2021/01/10 08:22:02;0.00;0.00;0.62;0.00;0.00;0.62;10.37;8.57;;;17.00;26.10;;;;;;2265166;61;20369;-66
2021/01/10 08:24:47;0.00;0.00;0.62;0.00;0.00;0.62;10.87;7.90;;;17.00;26.10;;;;;;2265551;61;20387;-63
2021/01/10 08:27:32;0.00;0.00;0.62;0.00;0.00;0.62;10.30;8.10;;;17.00;26.10;;;;;;2265195;61;20393;-65
2021/01/10 08:30:18;0.00;0.00;0.62;0.00;0.00;0.62;9.57;7.63;;;16.90;26.00;;;;;;2265052;61;20792;-63
2021/01/10 08:33:03;0.00;0.00;0.62;0.00;0.00;0.62;9.50;8.07;;;16.90;26.10;;;;;;2265503;61;20361;-65
2021/01/10 08:35:48;0.00;0.00;0.62;0.00;0.00;0.62;10.07;7.40;;;16.90;26.10;;;;;;2265490;61;20393;-64
2021/01/10 08:38:33;0.00;0.00;0.62;0.00;0.00;0.62;10.67;8.43;;;16.90;26.10;;;;;;2264970;61;20699;-66
2021/01/10 08:41:24;0.00;0.00;0.62;0.00;0.00;0.62;11.50;8.60;;;16.90;26.10;;;;;;2265017;61;20469;-65
2021/01/10 08:44:11;0.00;0.00;0.62;0.00;0.00;0.62;11.17;8.37;;;16.90;26.10;;;;;;2265082;61;20400;-62
2021/01/10 08:46:57;0.00;0.00;0.62;0.00;0.00;0.62;10.80;8.17;;;16.90;26.10;;;;;;2264970;61;20442;-61
2021/01/10 08:49:42;0.00;0.00;0.62;0.00;0.00;0.62;11.43;7.90;;;16.80;26.00;;;;;;2264959;61;20361;-60
2021/01/10 08:52:28;0.00;0.00;0.62;0.00;0.00;0.62;8.57;7.23;;;16.90;26.10;;;;;;2265086;61;20407;-63
2021/01/10 08:55:13;0.00;0.00;0.62;0.00;0.00;0.62;9.10;7.37;;;16.80;26.10;;;;;;2265401;61;20373;-66
2021/01/10 08:57:58;0.00;0.00;0.62;0.00;0.00;0.62;10.73;8.20;;;16.80;26.10;;;;;;2265349;61;20362;-63
2021/01/10 09:00:43;0.00;0.00;0.62;0.00;0.00;0.62;10.57;8.30;;;16.80;26.10;;;;;;2264663;61;20389;-64
2021/01/10 09:03:28;0.00;0.00;0.62;0.00;0.00;0.62;10.33;8.37;;;16.80;26.10;;;;;;2265037;61;20358;-63
2021/01/10 09:06:13;0.00;0.00;0.62;0.00;0.00;0.62;13.77;9.63;;;16.80;26.10;;;;;;2265140;61;20421;-65
2021/01/10 09:09:05;0.00;0.00;0.62;0.00;0.00;0.62;10.43;8.93;;;16.80;26.20;;;;;;2265224;61;20499;-64
2021/01/10 09:12:02;0.00;0.00;0.62;0.00;0.00;0.62;11.50;9.27;;;16.80;26.20;;;;;;2265193;61;20377;-64
2021/01/10 09:14:53;0.00;0.00;0.62;0.00;0.00;0.62;10.70;9.37;;;16.80;26.20;;;;;;2264957;61;20415;-67
2021/01/10 09:17:42;0.00;0.00;0.62;0.00;0.00;0.62;10.10;9.00;;;16.80;26.20;;;;;;2265206;61;20726;-68
2021/01/10 09:20:32;0.00;0.00;0.62;0.00;0.00;0.62;9.50;8.10;;;16.80;26.20;;;;;;2264656;61;20378;-64
2021/01/10 09:23:18;0.00;0.00;0.62;0.00;0.00;0.62;10.17;8.13;;;16.80;26.20;;;;;;2265325;61;20424;-67
2021/01/10 09:26:04;0.00;0.00;0.62;0.00;0.00;0.62;12.00;8.80;;;16.80;26.20;;;;;;2265052;61;20712;-66
2021/01/10 09:28:48;0.00;0.00;0.62;0.00;0.00;0.62;13.07;9.70;;;16.80;26.20;;;;;;2264749;61;20713;-65
2021/01/10 09:31:40;0.00;0.00;0.62;0.00;0.00;0.62;8.70;7.80;;;16.80;26.20;;;;;;2265218;61;20733;-66
2021/01/10 09:34:25;0.00;0.00;0.62;0.00;0.00;0.62;10.67;8.10;;;16.80;26.20;;;;;;2265091;61;20361;-64
2021/01/10 09:37:10;0.00;0.00;0.62;0.00;0.00;0.62;9.43;7.33;;;16.80;26.20;;;;;;2265234;61;20357;-65
2021/01/10 09:40:10;0.00;0.00;0.62;0.00;0.00;0.62;10.10;8.90;;;16.80;26.20;;;;;;2265076;61;20425;-61
2021/01/10 09:42:56;0.00;0.00;0.62;0.00;0.00;0.62;8.90;7.20;;;16.80;26.20;;;;;;2264568;61;20361;-64
2021/01/10 09:45:40;0.00;0.00;0.62;0.00;0.00;0.62;11.17;8.70;;;16.80;26.20;;;;;;2265232;61;20370;-64
2021/01/10 09:48:26;0.00;0.00;0.62;0.00;0.00;0.62;12.53;8.70;;;16.80;26.20;;;;;;2264869;61;20717;-63
2021/01/10 09:51:10;0.00;0.00;0.62;0.00;0.00;0.62;9.50;8.00;;;16.80;26.20;;;;;;2264906;61;20606;-63
2021/01/10 09:54:08;0.00;0.00;0.62;0.00;0.00;0.62;9.93;8.80;;;16.80;26.20;;;;;;2265622;61;20357;-64
2021/01/10 09:56:54;0.00;0.00;0.62;0.00;0.00;0.62;11.33;7.73;;;16.80;26.80;;;;;;2265242;61;20416;-63
2021/01/10 09:59:43;0.00;0.00;0.62;0.00;0.00;0.62;11.97;8.77;;;16.80;26.30;;;;;;2265028;61;20428;-63
2021/01/10 10:02:35;0.00;0.00;0.62;0.00;0.00;0.62;8.53;7.10;;;16.80;26.30;;;;;;2265136;61;20408;-62
2021/01/10 10:05:27;0.00;0.00;0.62;0.00;0.00;0.62;9.60;8.27;;;16.80;26.20;;;;;;2264945;61;20917;-63
2021/01/10 10:08:12;0.00;0.00;0.62;0.00;0.00;0.62;10.53;9.37;;;16.80;26.20;;;;;;2265226;61;20641;-63
2021/01/10 10:10:57;0.00;0.00;0.62;0.00;0.00;0.62;11.20;8.80;;;16.90;26.30;;;;;;2264751;61;20749;-62
2021/01/10 10:13:42;0.00;0.00;0.62;0.00;0.00;0.62;12.77;9.03;;;16.90;26.30;;;;;;2264831;61;20361;-63
2021/01/10 10:16:30;0.00;0.00;0.62;0.00;0.00;0.62;11.47;9.17;;;16.90;26.30;;;;;;2265116;61;20389;-63
2021/01/10 10:19:23;0.00;0.00;0.62;0.00;0.00;0.62;12.50;9.80;;;16.90;26.30;;;;;;2264724;61;20456;-63
2021/01/10 10:22:23;0.00;0.00;0.62;0.00;0.00;0.62;12.27;9.60;;;16.90;26.30;;;;;;2264725;61;20404;-62
2021/01/10 10:25:12;0.00;0.00;0.62;0.00;0.00;0.62;10.80;8.30;;;16.90;26.30;;;;;;2264845;61;20370;-62
2021/01/10 10:27:58;0.00;0.00;0.62;0.00;0.00;0.62;9.87;7.80;;;16.90;26.30;;;;;;2264746;61;20726;-62
2021/01/10 10:30:45;0.00;0.00;0.62;0.00;0.00;0.62;10.63;7.80;;;16.90;26.50;;;;;;2264886;61;20753;-62
2021/01/10 10:33:30;0.00;0.00;0.62;0.00;0.00;0.62;10.03;7.40;;;17.00;26.60;;;;;;2264892;61;20380;-63
2021/01/10 10:36:20;0.00;0.00;0.62;0.00;0.00;0.62;9.40;7.67;;;17.00;26.70;;;;;;2265244;61;20480;-64
2021/01/10 10:39:05;0.00;0.00;0.62;0.00;0.00;0.62;11.20;8.20;;;17.10;26.80;;;;;;2265625;61;20698;-65
2021/01/10 10:41:50;0.00;0.00;0.62;0.00;0.00;0.62;10.33;9.00;;;17.20;27.00;;;;;;2265705;61;20408;-64
2021/01/10 10:44:34;0.00;0.00;0.62;0.00;0.00;0.62;8.10;7.30;;;17.30;27.00;;;;;;2265631;61;20737;-64
2021/01/10 10:47:19;0.00;0.00;0.62;0.00;0.00;0.62;9.33;7.03;;;17.40;27.00;;;;;;2265527;61;20369;-65
2021/01/10 10:50:07;0.00;0.00;0.62;0.00;0.00;0.62;8.83;7.40;;;17.50;27.00;;;;;;2265118;61;20399;-63
2021/01/10 10:52:52;0.00;0.00;0.62;0.00;0.00;0.62;10.00;8.60;;;17.70;27.10;;;;;;2265707;61;20717;-66
2021/01/10 10:55:37;0.00;0.00;0.62;0.00;0.00;0.62;8.20;7.27;;;17.80;27.10;;;;;;2265487;61;20433;-66
2021/01/10 10:58:21;0.00;0.00;0.62;0.00;0.00;0.62;7.97;6.40;;;17.90;27.10;;;;;;2265277;61;20365;-66
2021/01/10 11:01:06;0.00;0.00;0.62;0.00;0.00;0.62;8.50;6.50;;;18.10;27.10;;;;;;2265374;61;20377;-63